sensor_id;sensor_type;location;lat;lon;timestamp;P1;durP1;ratioP1;P2;durP2;ratioP2
35550;SDS011;21655;46.056;13.616;2022-11-22T00:00:51;12.05;;;6.28;;
35550;SDS011;21655;46.056;13.616;2022-11-22T00:03:17;9.80;;;6.40;;
35550;SDS011;21655;46.056;13.616;2022-11-22T00:05:42;17.58;;;6.72;;
35550;SDS011;21655;46.056;13.616;2022-11-22T00:08:08;11.98;;;6.47;;
35550;SDS011;21655;46.056;13.616;2022-11-22T00:10:34;11.60;;;6.22;;
35550;SDS011;21655;46.056;13.616;2022-11-22T00:12:59;12.55;;;6.93;;
35550;SDS011;21655;46.056;13.616;2022-11-22T00:15:25;10.27;;;6.18;;
35550;SDS011;21655;46.056;13.616;2022-11-22T00:17:51;13.38;;;6.40;;
35550;SDS011;21655;46.056;13.616;2022-11-22T00:20:17;13.45;;;6.55;;
35550;SDS011;21655;46.056;13.616;2022-11-22T00:22:42;10.70;;;6.50;;
35550;SDS011;21655;46.056;13.616;2022-11-22T00:25:08;13.52;;;6.45;;
35550;SDS011;21655;46.056;13.616;2022-11-22T00:27:34;10.88;;;6.05;;
35550;SDS011;21655;46.056;13.616;2022-11-22T00:29:59;10.00;;;6.03;;
35550;SDS011;21655;46.056;13.616;2022-11-22T00:32:25;10.82;;;5.78;;
35550;SDS011;21655;46.056;13.616;2022-11-22T00:34:50;13.32;;;6.72;;
35550;SDS011;21655;46.056;13.616;2022-11-22T00:37:16;11.85;;;6.05;;
35550;SDS011;21655;46.056;13.616;2022-11-22T00:39:41;12.73;;;6.45;;
35550;SDS011;21655;46.056;13.616;2022-11-22T00:42:07;10.73;;;5.35;;
35550;SDS011;21655;46.056;13.616;2022-11-22T00:44:32;15.57;;;6.10;;
35550;SDS011;21655;46.056;13.616;2022-11-22T00:46:57;13.00;;;5.68;;
35550;SDS011;21655;46.056;13.616;2022-11-22T00:49:23;9.80;;;5.63;;
35550;SDS011;21655;46.056;13.616;2022-11-22T00:51:48;11.27;;;5.38;;
35550;SDS011;21655;46.056;13.616;2022-11-22T00:54:14;10.60;;;5.80;;
35550;SDS011;21655;46.056;13.616;2022-11-22T00:56:39;9.45;;;5.63;;
35550;SDS011;21655;46.056;13.616;2022-11-22T00:59:05;12.55;;;5.63;;
35550;SDS011;21655;46.056;13.616;2022-11-22T01:01:31;13.50;;;5.80;;
35550;SDS011;21655;46.056;13.616;2022-11-22T01:03:56;11.50;;;6.40;;
35550;SDS011;21655;46.056;13.616;2022-11-22T01:06:21;13.73;;;7.13;;
35550;SDS011;21655;46.056;13.616;2022-11-22T01:08:47;11.20;;;6.38;;
35550;SDS011;21655;46.056;13.616;2022-11-22T01:11:13;14.13;;;7.13;;
35550;SDS011;21655;46.056;13.616;2022-11-22T01:13:41;13.38;;;6.65;;
35550;SDS011;21655;46.056;13.616;2022-11-22T01:16:07;15.57;;;6.63;;
35550;SDS011;21655;46.056;13.616;2022-11-22T01:18:33;15.82;;;7.15;;
35550;SDS011;21655;46.056;13.616;2022-11-22T01:20:59;11.18;;;6.82;;
35550;SDS011;21655;46.056;13.616;2022-11-22T01:23:24;12.27;;;7.07;;
35550;SDS011;21655;46.056;13.616;2022-11-22T01:25:49;14.82;;;7.22;;
35550;SDS011;21655;46.056;13.616;2022-11-22T01:28:15;10.23;;;6.85;;
35550;SDS011;21655;46.056;13.616;2022-11-22T01:30:41;11.77;;;7.03;;
35550;SDS011;21655;46.056;13.616;2022-11-22T01:33:07;11.18;;;6.70;;
35550;SDS011;21655;46.056;13.616;2022-11-22T01:35:34;11.63;;;7.00;;
35550;SDS011;21655;46.056;13.616;2022-11-22T01:38:00;13.40;;;7.32;;
35550;SDS011;21655;46.056;13.616;2022-11-22T01:40:25;15.45;;;7.30;;
35550;SDS011;21655;46.056;13.616;2022-11-22T01:42:52;12.13;;;7.18;;
35550;SDS011;21655;46.056;13.616;2022-11-22T01:45:41;14.88;;;7.63;;
35550;SDS011;21655;46.056;13.616;2022-11-22T01:50:37;13.00;;;7.88;;
35550;SDS011;21655;46.056;13.616;2022-11-22T01:53:08;12.00;;;7.65;;
35550;SDS011;21655;46.056;13.616;2022-11-22T01:55:37;11.10;;;7.25;;
35550;SDS011;21655;46.056;13.616;2022-11-22T01:58:04;14.70;;;7.90;;
35550;SDS011;21655;46.056;13.616;2022-11-22T02:00:30;14.13;;;7.20;;
35550;SDS011;21655;46.056;13.616;2022-11-22T02:02:56;13.02;;;7.90;;
35550;SDS011;21655;46.056;13.616;2022-11-22T02:05:26;14.07;;;7.75;;
35550;SDS011;21655;46.056;13.616;2022-11-22T02:10:24;12.90;;;7.47;;
35550;SDS011;21655;46.056;13.616;2022-11-22T02:12:52;15.18;;;7.85;;
35550;SDS011;21655;46.056;13.616;2022-11-22T02:15:19;17.55;;;8.40;;
35550;SDS011;21655;46.056;13.616;2022-11-22T02:17:45;13.75;;;8.00;;
35550;SDS011;21655;46.056;13.616;2022-11-22T02:20:10;15.98;;;8.27;;
35550;SDS011;21655;46.056;13.616;2022-11-22T02:22:40;12.98;;;7.68;;
35550;SDS011;21655;46.056;13.616;2022-11-22T02:25:29;15.73;;;7.45;;
35550;SDS011;21655;46.056;13.616;2022-11-22T18:48:19;4.05;;;1.30;;
35550;SDS011;21655;46.056;13.616;2022-11-22T18:50:45;2.97;;;1.33;;
35550;SDS011;21655;46.056;13.616;2022-11-22T18:53:10;6.57;;;1.20;;
35550;SDS011;21655;46.056;13.616;2022-11-22T18:55:35;2.85;;;1.00;;
35550;SDS011;21655;46.056;13.616;2022-11-22T18:58:01;5.07;;;1.20;;
35550;SDS011;21655;46.056;13.616;2022-11-22T19:00:26;3.17;;;1.20;;
35550;SDS011;21655;46.056;13.616;2022-11-22T19:02:52;1.98;;;1.13;;
35550;SDS011;21655;46.056;13.616;2022-11-22T19:05:17;2.40;;;1.20;;
35550;SDS011;21655;46.056;13.616;2022-11-22T19:07:43;2.55;;;0.98;;
35550;SDS011;21655;46.056;13.616;2022-11-22T19:10:12;3.05;;;0.90;;
35550;SDS011;21655;46.056;13.616;2022-11-22T19:12:37;1.98;;;0.90;;
35550;SDS011;21655;46.056;13.616;2022-11-22T19:15:03;2.20;;;0.90;;
35550;SDS011;21655;46.056;13.616;2022-11-22T19:17:30;3.90;;;0.77;;
35550;SDS011;21655;46.056;13.616;2022-11-22T19:19:56;5.55;;;2.28;;
35550;SDS011;21655;46.056;13.616;2022-11-22T19:22:23;2.63;;;1.08;;
35550;SDS011;21655;46.056;13.616;2022-11-22T19:24:49;2.03;;;0.90;;
35550;SDS011;21655;46.056;13.616;2022-11-22T19:27:15;2.83;;;1.00;;
35550;SDS011;21655;46.056;13.616;2022-11-22T19:29:40;3.63;;;1.10;;
35550;SDS011;21655;46.056;13.616;2022-11-22T19:32:06;2.70;;;1.15;;
35550;SDS011;21655;46.056;13.616;2022-11-22T19:34:31;2.05;;;0.90;;
35550;SDS011;21655;46.056;13.616;2022-11-22T19:36:57;4.35;;;1.30;;
35550;SDS011;21655;46.056;13.616;2022-11-22T19:39:24;1.27;;;0.70;;
35550;SDS011;21655;46.056;13.616;2022-11-22T19:41:51;2.85;;;1.10;;
35550;SDS011;21655;46.056;13.616;2022-11-22T19:44:17;4.05;;;1.48;;
35550;SDS011;21655;46.056;13.616;2022-11-22T19:46:43;2.60;;;1.00;;
35550;SDS011;21655;46.056;13.616;2022-11-22T19:49:08;7.57;;;1.40;;
35550;SDS011;21655;46.056;13.616;2022-11-22T19:51:34;1.45;;;0.60;;
35550;SDS011;21655;46.056;13.616;2022-11-22T19:54:01;1.10;;;0.60;;
35550;SDS011;21655;46.056;13.616;2022-11-22T19:56:28;6.43;;;1.58;;
35550;SDS011;21655;46.056;13.616;2022-11-22T19:58:56;1.50;;;0.60;;
35550;SDS011;21655;46.056;13.616;2022-11-22T20:01:23;1.33;;;0.70;;
35550;SDS011;21655;46.056;13.616;2022-11-22T20:03:50;3.15;;;0.73;;
35550;SDS011;21655;46.056;13.616;2022-11-22T20:06:17;1.83;;;0.80;;
35550;SDS011;21655;46.056;13.616;2022-11-22T20:08:43;2.05;;;0.80;;
35550;SDS011;21655;46.056;13.616;2022-11-22T20:11:09;2.90;;;1.08;;
35550;SDS011;21655;46.056;13.616;2022-11-22T20:13:38;1.05;;;0.50;;
35550;SDS011;21655;46.056;13.616;2022-11-22T20:16:06;1.15;;;0.50;;
35550;SDS011;21655;46.056;13.616;2022-11-22T20:18:32;1.58;;;0.70;;
35550;SDS011;21655;46.056;13.616;2022-11-22T20:20:59;2.65;;;0.65;;
35550;SDS011;21655;46.056;13.616;2022-11-22T20:23:26;2.50;;;0.60;;
35550;SDS011;21655;46.056;13.616;2022-11-22T20:25:52;1.42;;;0.68;;
35550;SDS011;21655;46.056;13.616;2022-11-22T20:28:17;1.90;;;0.70;;
35550;SDS011;21655;46.056;13.616;2022-11-22T20:30:42;1.45;;;0.40;;
35550;SDS011;21655;46.056;13.616;2022-11-22T20:33:08;1.58;;;0.70;;
35550;SDS011;21655;46.056;13.616;2022-11-22T20:35:34;0.60;;;0.40;;
35550;SDS011;21655;46.056;13.616;2022-11-22T20:37:59;3.72;;;0.95;;
35550;SDS011;21655;46.056;13.616;2022-11-22T20:40:25;1.60;;;0.70;;
35550;SDS011;21655;46.056;13.616;2022-11-22T20:42:50;1.20;;;0.50;;
35550;SDS011;21655;46.056;13.616;2022-11-22T20:45:16;1.10;;;0.70;;
35550;SDS011;21655;46.056;13.616;2022-11-22T20:47:41;2.78;;;0.90;;
35550;SDS011;21655;46.056;13.616;2022-11-22T20:50:07;1.13;;;0.60;;
35550;SDS011;21655;46.056;13.616;2022-11-22T20:52:33;4.22;;;1.08;;
35550;SDS011;21655;46.056;13.616;2022-11-22T20:54:58;2.35;;;0.75;;
35550;SDS011;21655;46.056;13.616;2022-11-22T20:57:24;0.70;;;0.50;;
35550;SDS011;21655;46.056;13.616;2022-11-22T20:59:49;0.80;;;0.50;;
35550;SDS011;21655;46.056;13.616;2022-11-22T21:02:15;1.05;;;0.55;;
35550;SDS011;21655;46.056;13.616;2022-11-22T21:04:40;0.60;;;0.50;;
35550;SDS011;21655;46.056;13.616;2022-11-22T21:07:05;0.80;;;0.50;;
35550;SDS011;21655;46.056;13.616;2022-11-22T21:09:31;4.85;;;0.50;;
35550;SDS011;21655;46.056;13.616;2022-11-22T21:11:56;1.23;;;0.60;;
35550;SDS011;21655;46.056;13.616;2022-11-22T21:14:22;6.57;;;0.60;;
35550;SDS011;21655;46.056;13.616;2022-11-22T21:16:47;1.10;;;0.70;;
35550;SDS011;21655;46.056;13.616;2022-11-22T21:19:13;1.13;;;0.60;;
35550;SDS011;21655;46.056;13.616;2022-11-22T21:21:39;3.63;;;0.90;;
35550;SDS011;21655;46.056;13.616;2022-11-22T21:24:04;0.95;;;0.60;;
35550;SDS011;21655;46.056;13.616;2022-11-22T21:26:31;0.73;;;0.50;;
35550;SDS011;21655;46.056;13.616;2022-11-22T21:28:58;1.05;;;0.60;;
35550;SDS011;21655;46.056;13.616;2022-11-22T21:31:24;1.00;;;0.47;;
35550;SDS011;21655;46.056;13.616;2022-11-22T21:33:50;0.50;;;0.40;;
35550;SDS011;21655;46.056;13.616;2022-11-22T21:36:16;1.33;;;0.60;;
35550;SDS011;21655;46.056;13.616;2022-11-22T21:38:43;1.17;;;0.70;;
35550;SDS011;21655;46.056;13.616;2022-11-22T21:41:11;1.45;;;0.60;;
35550;SDS011;21655;46.056;13.616;2022-11-22T21:43:38;1.70;;;0.80;;
35550;SDS011;21655;46.056;13.616;2022-11-22T21:46:04;1.23;;;0.50;;
35550;SDS011;21655;46.056;13.616;2022-11-22T21:48:30;0.60;;;0.50;;
35550;SDS011;21655;46.056;13.616;2022-11-22T21:50:55;1.00;;;0.50;;
35550;SDS011;21655;46.056;13.616;2022-11-22T21:53:22;1.20;;;0.70;;
35550;SDS011;21655;46.056;13.616;2022-11-22T21:55:55;0.40;;;0.40;;
35550;SDS011;21655;46.056;13.616;2022-11-22T21:58:28;1.35;;;0.50;;
35550;SDS011;21655;46.056;13.616;2022-11-22T22:00:54;1.05;;;0.60;;
35550;SDS011;21655;46.056;13.616;2022-11-22T22:03:25;0.80;;;0.50;;
35550;SDS011;21655;46.056;13.616;2022-11-22T22:05:50;0.47;;;0.40;;
35550;SDS011;21655;46.056;13.616;2022-11-22T22:08:18;1.02;;;0.50;;
35550;SDS011;21655;46.056;13.616;2022-11-22T22:10:47;0.55;;;0.50;;
35550;SDS011;21655;46.056;13.616;2022-11-22T22:13:14;0.40;;;0.40;;
35550;SDS011;21655;46.056;13.616;2022-11-22T22:15:40;2.08;;;0.55;;
35550;SDS011;21655;46.056;13.616;2022-11-22T22:18:05;1.17;;;0.50;;
35550;SDS011;21655;46.056;13.616;2022-11-22T22:20:31;1.48;;;0.55;;
35550;SDS011;21655;46.056;13.616;2022-11-22T22:22:56;0.65;;;0.40;;
35550;SDS011;21655;46.056;13.616;2022-11-22T22:25:22;0.70;;;0.50;;
35550;SDS011;21655;46.056;13.616;2022-11-22T22:27:48;0.40;;;0.40;;
35550;SDS011;21655;46.056;13.616;2022-11-22T22:30:13;0.55;;;0.50;;
35550;SDS011;21655;46.056;13.616;2022-11-22T22:32:40;0.90;;;0.52;;
35550;SDS011;21655;46.056;13.616;2022-11-22T22:35:06;0.88;;;0.60;;
35550;SDS011;21655;46.056;13.616;2022-11-22T22:37:32;0.55;;;0.38;;
35550;SDS011;21655;46.056;13.616;2022-11-22T22:39:59;0.45;;;0.40;;
35550;SDS011;21655;46.056;13.616;2022-11-22T22:42:24;0.55;;;0.50;;
35550;SDS011;21655;46.056;13.616;2022-11-22T22:44:50;0.75;;;0.50;;
35550;SDS011;21655;46.056;13.616;2022-11-22T22:47:15;0.45;;;0.40;;
35550;SDS011;21655;46.056;13.616;2022-11-22T22:49:41;0.63;;;0.40;;
35550;SDS011;21655;46.056;13.616;2022-11-22T22:52:06;0.63;;;0.40;;
35550;SDS011;21655;46.056;13.616;2022-11-22T22:54:32;0.40;;;0.40;;
35550;SDS011;21655;46.056;13.616;2022-11-22T22:56:57;0.40;;;0.40;;
35550;SDS011;21655;46.056;13.616;2022-11-22T22:59:22;0.30;;;0.30;;
35550;SDS011;21655;46.056;13.616;2022-11-22T23:01:48;0.60;;;0.50;;
35550;SDS011;21655;46.056;13.616;2022-11-22T23:04:13;0.80;;;0.50;;
35550;SDS011;21655;46.056;13.616;2022-11-22T23:06:39;0.40;;;0.40;;
35550;SDS011;21655;46.056;13.616;2022-11-22T23:09:05;0.43;;;0.40;;
35550;SDS011;21655;46.056;13.616;2022-11-22T23:11:33;0.70;;;0.50;;
35550;SDS011;21655;46.056;13.616;2022-11-22T23:14:22;0.77;;;0.47;;
35550;SDS011;21655;46.056;13.616;2022-11-22T23:16:50;1.52;;;0.50;;
35550;SDS011;21655;46.056;13.616;2022-11-22T23:19:16;0.40;;;0.40;;
35550;SDS011;21655;46.056;13.616;2022-11-22T23:21:41;0.50;;;0.40;;
35550;SDS011;21655;46.056;13.616;2022-11-22T23:24:07;0.40;;;0.40;;
35550;SDS011;21655;46.056;13.616;2022-11-22T23:26:33;0.40;;;0.40;;
35550;SDS011;21655;46.056;13.616;2022-11-22T23:28:59;1.75;;;0.50;;
35550;SDS011;21655;46.056;13.616;2022-11-22T23:31:25;2.47;;;0.45;;
35550;SDS011;21655;46.056;13.616;2022-11-22T23:33:51;0.73;;;0.65;;
35550;SDS011;21655;46.056;13.616;2022-11-22T23:36:18;0.65;;;0.40;;
35550;SDS011;21655;46.056;13.616;2022-11-22T23:38:45;0.60;;;0.50;;
35550;SDS011;21655;46.056;13.616;2022-11-22T23:41:11;0.50;;;0.40;;
35550;SDS011;21655;46.056;13.616;2022-11-22T23:43:38;0.70;;;0.43;;
35550;SDS011;21655;46.056;13.616;2022-11-22T23:46:04;0.40;;;0.40;;
35550;SDS011;21655;46.056;13.616;2022-11-22T23:48:30;0.50;;;0.40;;
35550;SDS011;21655;46.056;13.616;2022-11-22T23:51:00;0.65;;;0.50;;
35550;SDS011;21655;46.056;13.616;2022-11-22T23:53:27;0.77;;;0.40;;
35550;SDS011;21655;46.056;13.616;2022-11-22T23:55:53;1.63;;;0.50;;
35550;SDS011;21655;46.056;13.616;2022-11-22T23:58:18;1.08;;;0.50;;
